sensor_id;sensor_type;location;lat;lon;timestamp;pressure;altitude;pressure_sealevel;temperature;humidity
11011;BME280;5558;42.702;23.178;2023-06-10T00:00:07;93343.56;;;16.72;100.00
11011;BME280;5558;42.702;23.178;2023-06-10T00:02:38;93339.81;;;16.81;100.00
11011;BME280;5558;42.702;23.178;2023-06-10T00:05:07;93356.00;;;16.76;100.00
11011;BME280;5558;42.702;23.178;2023-06-10T00:07:35;93364.78;;;16.68;100.00
11011;BME280;5558;42.702;23.178;2023-06-10T00:10:03;93376.22;;;16.60;100.00
11011;BME280;5558;42.702;23.178;2023-06-10T00:12:31;93373.22;;;16.53;100.00
11011;BME280;5558;42.702;23.178;2023-06-10T00:15:04;93374.72;;;16.76;100.00
11011;BME280;5558;42.702;23.178;2023-06-10T00:17:32;93361.97;;;16.73;100.00
11011;BME280;5558;42.702;23.178;2023-06-10T00:19:59;93360.91;;;16.83;100.00
11011;BME280;5558;42.702;23.178;2023-06-10T00:22:30;93359.22;;;16.95;100.00
11011;BME280;5558;42.702;23.178;2023-06-10T00:24:57;93347.75;;;17.03;100.00
11011;BME280;5558;42.702;23.178;2023-06-10T00:27:24;93348.53;;;17.04;100.00
11011;BME280;5558;42.702;23.178;2023-06-10T00:29:56;93347.47;;;17.14;100.00
11011;BME280;5558;42.702;23.178;2023-06-10T00:32:23;93341.34;;;17.22;100.00
11011;BME280;5558;42.702;23.178;2023-06-10T00:34:50;93333.47;;;17.25;100.00
11011;BME280;5558;42.702;23.178;2023-06-10T00:37:16;93336.94;;;17.34;100.00
11011;BME280;5558;42.702;23.178;2023-06-10T00:39:44;93341.22;;;17.35;100.00
11011;BME280;5558;42.702;23.178;2023-06-10T00:42:11;93344.03;;;17.39;100.00
11011;BME280;5558;42.702;23.178;2023-06-10T00:44:38;93337.13;;;17.38;100.00
11011;BME280;5558;42.702;23.178;2023-06-10T00:47:06;93352.88;;;17.48;100.00
11011;BME280;5558;42.702;23.178;2023-06-10T00:49:34;93339.63;;;17.43;100.00
11011;BME280;5558;42.702;23.178;2023-06-10T00:52:01;93349.56;;;17.51;100.00
11011;BME280;5558;42.702;23.178;2023-06-10T00:54:30;93354.47;;;17.57;100.00
11011;BME280;5558;42.702;23.178;2023-06-10T00:57:00;93347.06;;;17.63;100.00
11011;BME280;5558;42.702;23.178;2023-06-10T00:59:28;93353.53;;;17.70;100.00
11011;BME280;5558;42.702;23.178;2023-06-10T01:01:56;93356.06;;;17.67;100.00
11011;BME280;5558;42.702;23.178;2023-06-10T01:04:23;93352.59;;;17.66;100.00
11011;BME280;5558;42.702;23.178;2023-06-10T01:06:55;93352.59;;;17.66;100.00
11011;BME280;5558;42.702;23.178;2023-06-10T01:09:30;93357.28;;;17.61;100.00
11011;BME280;5558;42.702;23.178;2023-06-10T01:12:05;93362.34;;;17.54;100.00
11011;BME280;5558;42.702;23.178;2023-06-10T01:14:34;93357.44;;;17.56;100.00
11011;BME280;5558;42.702;23.178;2023-06-10T01:17:02;93356.53;;;17.60;100.00
11011;BME280;5558;42.702;23.178;2023-06-10T01:19:29;93350.22;;;17.65;100.00
11011;BME280;5558;42.702;23.178;2023-06-10T01:21:58;93353.06;;;17.60;100.00
11011;BME280;5558;42.702;23.178;2023-06-10T01:24:26;93348.97;;;17.54;100.00
11011;BME280;5558;42.702;23.178;2023-06-10T01:26:54;93342.63;;;17.41;100.00
11011;BME280;5558;42.702;23.178;2023-06-10T01:29:30;93347.00;;;17.29;100.00
11011;BME280;5558;42.702;23.178;2023-06-10T01:32:02;93347.78;;;17.21;100.00
11011;BME280;5558;42.702;23.178;2023-06-10T01:34:31;93339.75;;;17.21;100.00
11011;BME280;5558;42.702;23.178;2023-06-10T01:37:00;93340.41;;;17.18;100.00
11011;BME280;5558;42.702;23.178;2023-06-10T01:39:29;93334.56;;;17.16;100.00
11011;BME280;5558;42.702;23.178;2023-06-10T01:41:57;93342.91;;;17.14;100.00
11011;BME280;5558;42.702;23.178;2023-06-10T01:44:24;93337.09;;;17.21;100.00
11011;BME280;5558;42.702;23.178;2023-06-10T01:46:51;93328.72;;;17.05;100.00
11011;BME280;5558;42.702;23.178;2023-06-10T01:49:18;93328.88;;;17.00;100.00
11011;BME280;5558;42.702;23.178;2023-06-10T01:51:45;93333.56;;;16.86;100.00
11011;BME280;5558;42.702;23.178;2023-06-10T01:54:13;93334.00;;;16.79;100.00
11011;BME280;5558;42.702;23.178;2023-06-10T01:56:40;93337.31;;;16.85;100.00
11011;BME280;5558;42.702;23.178;2023-06-10T01:59:06;93302.06;;;16.74;100.00
11011;BME280;5558;42.702;23.178;2023-06-10T02:01:33;93327.91;;;16.87;100.00
11011;BME280;5558;42.702;23.178;2023-06-10T02:04:00;93331.38;;;16.96;100.00
11011;BME280;5558;42.702;23.178;2023-06-10T02:06:27;93316.91;;;16.97;100.00
11011;BME280;5558;42.702;23.178;2023-06-10T02:08:54;93328.88;;;17.08;100.00
11011;BME280;5558;42.702;23.178;2023-06-10T02:11:22;93314.28;;;17.23;100.00
11011;BME280;5558;42.702;23.178;2023-06-10T02:13:49;93317.41;;;17.25;100.00
11011;BME280;5558;42.702;23.178;2023-06-10T02:16:16;93314.00;;;17.33;100.00
11011;BME280;5558;42.702;23.178;2023-06-10T02:18:44;93300.28;;;17.26;100.00
11011;BME280;5558;42.702;23.178;2023-06-10T02:21:11;93292.72;;;17.20;100.00
11011;BME280;5558;42.702;23.178;2023-06-10T02:23:38;93318.69;;;17.28;100.00
11011;BME280;5558;42.702;23.178;2023-06-10T02:26:05;93296.34;;;17.24;100.00
11011;BME280;5558;42.702;23.178;2023-06-10T02:28:33;93311.78;;;17.27;100.00
11011;BME280;5558;42.702;23.178;2023-06-10T02:31:00;93307.97;;;17.19;100.00
11011;BME280;5558;42.702;23.178;2023-06-10T02:33:29;93314.09;;;17.02;100.00
11011;BME280;5558;42.702;23.178;2023-06-10T02:35:56;93304.50;;;17.10;100.00
11011;BME280;5558;42.702;23.178;2023-06-10T02:38:23;93297.88;;;16.99;100.00
11011;BME280;5558;42.702;23.178;2023-06-10T02:40:50;93303.22;;;16.90;100.00
11011;BME280;5558;42.702;23.178;2023-06-10T02:43:17;93313.47;;;17.05;100.00
11011;BME280;5558;42.702;23.178;2023-06-10T02:45:45;93291.75;;;17.07;100.00
11011;BME280;5558;42.702;23.178;2023-06-10T02:48:12;93300.75;;;17.11;100.00
11011;BME280;5558;42.702;23.178;2023-06-10T02:50:39;93308.94;;;17.15;100.00
11011;BME280;5558;42.702;23.178;2023-06-10T02:53:06;93313.00;;;17.03;100.00
11011;BME280;5558;42.702;23.178;2023-06-10T02:55:33;93308.28;;;17.09;100.00
11011;BME280;5558;42.702;23.178;2023-06-10T02:58:00;93303.59;;;17.15;100.00
11011;BME280;5558;42.702;23.178;2023-06-10T03:00:28;93304.03;;;17.17;100.00
11011;BME280;5558;42.702;23.178;2023-06-10T03:02:56;93311.13;;;17.21;100.00
11011;BME280;5558;42.702;23.178;2023-06-10T03:05:23;93306.59;;;17.22;100.00
11011;BME280;5558;42.702;23.178;2023-06-10T03:07:50;93322.16;;;17.28;100.00
11011;BME280;5558;42.702;23.178;2023-06-10T03:10:17;93331.06;;;17.06;100.00
11011;BME280;5558;42.702;23.178;2023-06-10T03:12:44;93342.88;;;16.97;100.00
11011;BME280;5558;42.702;23.178;2023-06-10T03:15:11;93340.81;;;16.94;100.00
11011;BME280;5558;42.702;23.178;2023-06-10T03:17:37;93355.13;;;16.89;100.00
11011;BME280;5558;42.702;23.178;2023-06-10T03:20:07;93356.50;;;16.87;100.00
11011;BME280;5558;42.702;23.178;2023-06-10T03:22:35;93365.78;;;16.81;100.00
11011;BME280;5558;42.702;23.178;2023-06-10T03:25:03;93366.56;;;16.81;100.00
11011;BME280;5558;42.702;23.178;2023-06-10T03:27:30;93358.41;;;16.86;100.00
11011;BME280;5558;42.702;23.178;2023-06-10T03:29:58;93368.91;;;16.83;100.00
11011;BME280;5558;42.702;23.178;2023-06-10T03:32:25;93368.28;;;16.77;100.00
11011;BME280;5558;42.702;23.178;2023-06-10T03:34:52;93372.34;;;16.75;100.00
11011;BME280;5558;42.702;23.178;2023-06-10T03:37:23;93374.81;;;16.63;100.00
11011;BME280;5558;42.702;23.178;2023-06-10T03:39:50;93366.19;;;16.66;100.00
11011;BME280;5558;42.702;23.178;2023-06-10T03:42:17;93339.78;;;16.73;100.00
11011;BME280;5558;42.702;23.178;2023-06-10T03:44:43;93360.81;;;17.05;100.00
11011;BME280;5558;42.702;23.178;2023-06-10T03:47:10;93326.50;;;16.98;100.00
11011;BME280;5558;42.702;23.178;2023-06-10T03:49:38;93354.59;;;17.27;100.00
11011;BME280;5558;42.702;23.178;2023-06-10T03:52:06;93335.22;;;17.30;100.00
11011;BME280;5558;42.702;23.178;2023-06-10T03:54:34;93335.38;;;17.16;100.00
11011;BME280;5558;42.702;23.178;2023-06-10T03:57:01;93331.25;;;17.10;100.00
11011;BME280;5558;42.702;23.178;2023-06-10T03:59:28;93322.91;;;17.20;100.00
11011;BME280;5558;42.702;23.178;2023-06-10T04:01:55;93324.22;;;17.31;100.00
11011;BME280;5558;42.702;23.178;2023-06-10T04:04:23;93322.78;;;17.34;100.00
11011;BME280;5558;42.702;23.178;2023-06-10T04:06:50;93332.88;;;17.37;100.00
11011;BME280;5558;42.702;23.178;2023-06-10T04:09:16;93351.53;;;17.02;100.00
11011;BME280;5558;42.702;23.178;2023-06-10T04:11:45;93362.69;;;16.96;100.00
11011;BME280;5558;42.702;23.178;2023-06-10T04:14:11;93369.19;;;16.73;100.00
11011;BME280;5558;42.702;23.178;2023-06-10T04:16:39;93388.09;;;16.46;100.00
11011;BME280;5558;42.702;23.178;2023-06-10T04:19:06;93416.63;;;16.37;100.00
11011;BME280;5558;42.702;23.178;2023-06-10T04:21:32;93425.19;;;16.47;100.00
11011;BME280;5558;42.702;23.178;2023-06-10T04:23:59;93419.00;;;16.60;100.00
11011;BME280;5558;42.702;23.178;2023-06-10T04:26:27;93423.75;;;16.72;100.00
11011;BME280;5558;42.702;23.178;2023-06-10T04:28:55;93423.13;;;16.75;100.00
11011;BME280;5558;42.702;23.178;2023-06-10T04:31:21;93419.66;;;16.74;100.00
11011;BME280;5558;42.702;23.178;2023-06-10T04:33:48;93409.94;;;16.78;100.00
11011;BME280;5558;42.702;23.178;2023-06-10T04:36:15;93399.03;;;17.05;100.00
11011;BME280;5558;42.702;23.178;2023-06-10T04:38:42;93396.22;;;17.11;100.00
11011;BME280;5558;42.702;23.178;2023-06-10T04:41:09;93346.66;;;16.96;100.00
11011;BME280;5558;42.702;23.178;2023-06-10T04:43:36;93375.72;;;17.54;100.00
11011;BME280;5558;42.702;23.178;2023-06-10T04:46:04;93385.34;;;17.63;100.00
11011;BME280;5558;42.702;23.178;2023-06-10T04:48:31;93371.63;;;17.48;100.00
11011;BME280;5558;42.702;23.178;2023-06-10T04:51:00;93378.38;;;17.45;100.00
11011;BME280;5558;42.702;23.178;2023-06-10T04:53:27;93373.31;;;17.44;100.00
11011;BME280;5558;42.702;23.178;2023-06-10T04:55:54;93373.59;;;17.34;100.00
11011;BME280;5558;42.702;23.178;2023-06-10T04:58:20;93349.66;;;17.12;100.00
11011;BME280;5558;42.702;23.178;2023-06-10T05:00:47;93375.47;;;17.08;100.00
11011;BME280;5558;42.702;23.178;2023-06-10T05:03:15;93345.34;;;16.85;100.00
11011;BME280;5558;42.702;23.178;2023-06-10T05:05:42;93353.69;;;16.92;100.00
11011;BME280;5558;42.702;23.178;2023-06-10T05:08:09;93376.91;;;17.31;100.00
11011;BME280;5558;42.702;23.178;2023-06-10T05:10:36;93367.06;;;17.48;100.00
11011;BME280;5558;42.702;23.178;2023-06-10T05:13:03;93338.28;;;17.54;100.00
11011;BME280;5558;42.702;23.178;2023-06-10T05:15:30;93356.81;;;17.76;100.00
11011;BME280;5558;42.702;23.178;2023-06-10T05:17:57;93352.09;;;17.98;100.00
11011;BME280;5558;42.702;23.178;2023-06-10T05:20:26;93343.22;;;18.23;100.00
11011;BME280;5558;42.702;23.178;2023-06-10T05:22:54;93346.50;;;18.46;100.00
11011;BME280;5558;42.702;23.178;2023-06-10T05:25:20;93339.81;;;18.61;100.00
11011;BME280;5558;42.702;23.178;2023-06-10T05:27:47;93334.16;;;18.62;100.00
11011;BME280;5558;42.702;23.178;2023-06-10T05:30:14;93334.63;;;18.64;100.00
11011;BME280;5558;42.702;23.178;2023-06-10T05:32:42;93338.44;;;18.92;100.00
11011;BME280;5558;42.702;23.178;2023-06-10T05:35:08;93323.53;;;18.74;100.00
11011;BME280;5558;42.702;23.178;2023-06-10T05:37:37;93328.63;;;18.96;100.00
11011;BME280;5558;42.702;23.178;2023-06-10T05:40:05;93328.94;;;19.24;100.00
11011;BME280;5558;42.702;23.178;2023-06-10T05:42:32;93319.38;;;19.43;100.00
11011;BME280;5558;42.702;23.178;2023-06-10T05:44:58;93326.91;;;19.71;100.00
11011;BME280;5558;42.702;23.178;2023-06-10T05:47:25;93326.09;;;19.91;100.00
11011;BME280;5558;42.702;23.178;2023-06-10T05:49:52;93292.16;;;19.86;100.00
11011;BME280;5558;42.702;23.178;2023-06-10T05:52:19;93319.25;;;20.34;100.00
11011;BME280;5558;42.702;23.178;2023-06-10T05:54:47;93315.34;;;20.56;100.00
11011;BME280;5558;42.702;23.178;2023-06-10T05:57:14;93308.75;;;20.66;100.00
11011;BME280;5558;42.702;23.178;2023-06-10T05:59:41;93310.41;;;20.70;100.00
11011;BME280;5558;42.702;23.178;2023-06-10T06:02:07;93315.94;;;20.86;100.00
11011;BME280;5558;42.702;23.178;2023-06-10T06:04:34;93316.63;;;20.95;100.00
11011;BME280;5558;42.702;23.178;2023-06-10T06:07:01;93320.66;;;21.13;100.00
11011;BME280;5558;42.702;23.178;2023-06-10T06:09:28;93314.94;;;21.26;100.00
11011;BME280;5558;42.702;23.178;2023-06-10T06:11:56;93311.31;;;21.34;100.00
11011;BME280;5558;42.702;23.178;2023-06-10T06:14:23;93328.03;;;21.52;100.00
11011;BME280;5558;42.702;23.178;2023-06-10T06:16:50;93327.06;;;21.44;100.00
11011;BME280;5558;42.702;23.178;2023-06-10T06:19:17;93317.84;;;21.45;100.00
11011;BME280;5558;42.702;23.178;2023-06-10T06:21:43;93331.09;;;21.02;100.00
11011;BME280;5558;42.702;23.178;2023-06-10T06:24:10;93325.78;;;20.70;100.00
11011;BME280;5558;42.702;23.178;2023-06-10T06:26:37;93336.88;;;20.56;100.00
11011;BME280;5558;42.702;23.178;2023-06-10T06:29:05;93324.53;;;20.55;100.00
11011;BME280;5558;42.702;23.178;2023-06-10T06:31:32;93330.09;;;20.38;100.00
11011;BME280;5558;42.702;23.178;2023-06-10T06:33:58;93332.69;;;20.46;100.00
11011;BME280;5558;42.702;23.178;2023-06-10T06:36:25;93328.81;;;20.56;100.00
11011;BME280;5558;42.702;23.178;2023-06-10T06:38:52;93327.22;;;20.67;100.00
11011;BME280;5558;42.702;23.178;2023-06-10T06:41:19;93323.09;;;20.57;100.00
11011;BME280;5558;42.702;23.178;2023-06-10T06:43:47;93316.34;;;20.63;100.00
11011;BME280;5558;42.702;23.178;2023-06-10T06:46:15;93323.97;;;20.74;100.00
11011;BME280;5558;42.702;23.178;2023-06-10T06:48:42;93321.53;;;20.93;100.00
11011;BME280;5558;42.702;23.178;2023-06-10T06:51:08;93309.31;;;21.19;100.00
11011;BME280;5558;42.702;23.178;2023-06-10T06:53:35;93312.53;;;21.61;100.00
11011;BME280;5558;42.702;23.178;2023-06-10T06:56:02;93317.88;;;22.13;100.00
11011;BME280;5558;42.702;23.178;2023-06-10T06:58:29;93318.19;;;22.82;100.00
11011;BME280;5558;42.702;23.178;2023-06-10T07:00:55;93314.50;;;23.21;100.00
11011;BME280;5558;42.702;23.178;2023-06-10T07:03:23;93320.91;;;23.63;95.14
11011;BME280;5558;42.702;23.178;2023-06-10T07:05:50;93314.53;;;23.90;90.07
11011;BME280;5558;42.702;23.178;2023-06-10T07:08:17;93307.13;;;24.26;87.48
11011;BME280;5558;42.702;23.178;2023-06-10T07:10:44;93305.13;;;24.42;87.41
11011;BME280;5558;42.702;23.178;2023-06-10T07:13:11;93306.22;;;24.60;87.40
11011;BME280;5558;42.702;23.178;2023-06-10T07:15:38;93303.94;;;24.81;80.26
11011;BME280;5558;42.702;23.178;2023-06-10T07:18:05;93295.84;;;25.07;78.47
11011;BME280;5558;42.702;23.178;2023-06-10T07:20:33;93275.09;;;25.41;76.02
11011;BME280;5558;42.702;23.178;2023-06-10T07:23:00;93302.66;;;25.72;70.98
11011;BME280;5558;42.702;23.178;2023-06-10T07:25:26;93314.06;;;25.85;67.93
11011;BME280;5558;42.702;23.178;2023-06-10T07:27:53;93310.44;;;25.74;67.69
11011;BME280;5558;42.702;23.178;2023-06-10T07:30:20;93303.25;;;25.88;68.45
11011;BME280;5558;42.702;23.178;2023-06-10T07:32:47;93285.53;;;25.98;68.06
11011;BME280;5558;42.702;23.178;2023-06-10T07:35:14;93309.44;;;26.48;62.45
11011;BME280;5558;42.702;23.178;2023-06-10T07:37:42;93310.38;;;26.99;61.28
11011;BME280;5558;42.702;23.178;2023-06-10T07:40:09;93311.66;;;27.63;55.90
11011;BME280;5558;42.702;23.178;2023-06-10T07:42:36;93306.06;;;27.96;52.77
11011;BME280;5558;42.702;23.178;2023-06-10T07:45:03;93311.50;;;27.96;55.42
11011;BME280;5558;42.702;23.178;2023-06-10T07:47:32;93306.38;;;27.88;54.38
11011;BME280;5558;42.702;23.178;2023-06-10T07:49:59;93305.72;;;28.08;54.15
11011;BME280;5558;42.702;23.178;2023-06-10T07:52:26;93287.03;;;28.00;54.54
11011;BME280;5558;42.702;23.178;2023-06-10T07:54:55;93305.84;;;27.65;54.68
11011;BME280;5558;42.702;23.178;2023-06-10T07:57:22;93307.88;;;26.80;54.68
11011;BME280;5558;42.702;23.178;2023-06-10T07:59:48;93303.34;;;26.58;57.62
11011;BME280;5558;42.702;23.178;2023-06-10T08:02:15;93305.69;;;26.60;54.47
11011;BME280;5558;42.702;23.178;2023-06-10T08:04:42;93303.78;;;27.00;57.00
11011;BME280;5558;42.702;23.178;2023-06-10T08:07:08;93300.06;;;26.42;57.25
11011;BME280;5558;42.702;23.178;2023-06-10T08:09:35;93297.47;;;26.53;58.34
11011;BME280;5558;42.702;23.178;2023-06-10T08:12:06;93299.50;;;26.63;59.24
11011;BME280;5558;42.702;23.178;2023-06-10T08:14:33;93296.94;;;27.17;58.31
11011;BME280;5558;42.702;23.178;2023-06-10T08:17:00;93296.94;;;27.20;56.37
11011;BME280;5558;42.702;23.178;2023-06-10T08:19:26;93294.44;;;27.45;56.40
11011;BME280;5558;42.702;23.178;2023-06-10T08:21:53;93288.97;;;26.58;57.32
11011;BME280;5558;42.702;23.178;2023-06-10T08:24:20;93281.84;;;26.79;56.29
11011;BME280;5558;42.702;23.178;2023-06-10T08:26:46;93286.94;;;26.84;56.48
11011;BME280;5558;42.702;23.178;2023-06-10T08:29:14;93278.66;;;26.70;55.06
11011;BME280;5558;42.702;23.178;2023-06-10T08:31:41;93281.47;;;26.77;56.50
11011;BME280;5558;42.702;23.178;2023-06-10T08:34:09;93288.97;;;26.94;55.33
11011;BME280;5558;42.702;23.178;2023-06-10T08:36:37;93281.88;;;26.83;55.40
11011;BME280;5558;42.702;23.178;2023-06-10T08:39:03;93286.97;;;26.51;53.13
11011;BME280;5558;42.702;23.178;2023-06-10T08:41:35;93277.75;;;26.22;53.85
11011;BME280;5558;42.702;23.178;2023-06-10T08:44:08;93281.13;;;26.12;55.17
11011;BME280;5558;42.702;23.178;2023-06-10T08:46:38;93274.53;;;26.13;52.89
11011;BME280;5558;42.702;23.178;2023-06-10T08:49:09;93268.75;;;26.52;54.66
11011;BME280;5558;42.702;23.178;2023-06-10T08:51:37;93266.56;;;26.27;52.54
11011;BME280;5558;42.702;23.178;2023-06-10T08:54:10;93271.44;;;26.15;53.02
11011;BME280;5558;42.702;23.178;2023-06-10T08:56:39;93262.16;;;25.30;53.05
11011;BME280;5558;42.702;23.178;2023-06-10T08:59:06;93264.09;;;24.59;55.83
11011;BME280;5558;42.702;23.178;2023-06-10T09:01:34;93263.16;;;24.93;61.76
11011;BME280;5558;42.702;23.178;2023-06-10T09:04:02;93263.75;;;24.41;62.47
11011;BME280;5558;42.702;23.178;2023-06-10T09:06:31;93262.41;;;25.22;62.34
11011;BME280;5558;42.702;23.178;2023-06-10T09:08:59;93245.97;;;25.60;58.62
11011;BME280;5558;42.702;23.178;2023-06-10T09:11:26;93259.25;;;25.69;56.96
11011;BME280;5558;42.702;23.178;2023-06-10T09:13:52;93256.16;;;25.70;56.18
11011;BME280;5558;42.702;23.178;2023-06-10T09:16:19;93254.25;;;25.71;55.88
11011;BME280;5558;42.702;23.178;2023-06-10T09:18:46;93252.66;;;25.99;54.75
11011;BME280;5558;42.702;23.178;2023-06-10T09:21:14;93257.03;;;25.48;52.48
11011;BME280;5558;42.702;23.178;2023-06-10T09:23:41;93254.72;;;25.50;49.47
11011;BME280;5558;42.702;23.178;2023-06-10T09:26:09;93253.88;;;24.94;52.52
11011;BME280;5558;42.702;23.178;2023-06-10T09:28:37;93247.09;;;24.81;51.64
11011;BME280;5558;42.702;23.178;2023-06-10T09:31:05;93246.72;;;25.08;53.45
11011;BME280;5558;42.702;23.178;2023-06-10T09:33:33;93234.00;;;24.64;60.10
11011;BME280;5558;42.702;23.178;2023-06-10T09:36:03;93239.59;;;24.52;59.19
11011;BME280;5558;42.702;23.178;2023-06-10T09:38:33;93239.63;;;24.74;55.54
11011;BME280;5558;42.702;23.178;2023-06-10T09:41:00;93233.38;;;24.96;55.61
11011;BME280;5558;42.702;23.178;2023-06-10T09:43:41;93236.03;;;24.48;57.63
11011;BME280;5558;42.702;23.178;2023-06-10T09:46:14;93237.97;;;24.47;59.58
11011;BME280;5558;42.702;23.178;2023-06-10T09:48:42;93232.50;;;24.44;60.12
11011;BME280;5558;42.702;23.178;2023-06-10T09:51:10;93223.34;;;24.71;60.75
11011;BME280;5558;42.702;23.178;2023-06-10T09:53:38;93227.56;;;24.49;60.55
11011;BME280;5558;42.702;23.178;2023-06-10T09:56:05;93231.84;;;24.08;60.88
11011;BME280;5558;42.702;23.178;2023-06-10T09:58:36;93225.63;;;24.04;62.00
11011;BME280;5558;42.702;23.178;2023-06-10T10:01:06;93217.84;;;23.84;65.64
11011;BME280;5558;42.702;23.178;2023-06-10T10:03:33;93219.97;;;24.13;59.92
11011;BME280;5558;42.702;23.178;2023-06-10T10:06:00;93215.78;;;24.61;56.16
11011;BME280;5558;42.702;23.178;2023-06-10T10:08:27;93219.75;;;24.89;53.76
11011;BME280;5558;42.702;23.178;2023-06-10T10:10:56;93215.16;;;25.19;52.37
11011;BME280;5558;42.702;23.178;2023-06-10T10:13:25;93213.28;;;25.23;54.82
11011;BME280;5558;42.702;23.178;2023-06-10T10:15:54;93208.09;;;24.85;53.90
11011;BME280;5558;42.702;23.178;2023-06-10T10:18:24;93210.84;;;25.15;53.09
11011;BME280;5558;42.702;23.178;2023-06-10T10:20:54;93213.06;;;25.62;51.52
11011;BME280;5558;42.702;23.178;2023-06-10T10:23:26;93207.44;;;26.10;50.91
11011;BME280;5558;42.702;23.178;2023-06-10T10:26:00;93206.22;;;25.42;51.06
11011;BME280;5558;42.702;23.178;2023-06-10T10:28:38;93206.38;;;25.56;48.14
11011;BME280;5558;42.702;23.178;2023-06-10T10:31:08;93205.53;;;25.81;47.72
11011;BME280;5558;42.702;23.178;2023-06-10T10:33:42;93203.69;;;25.89;46.27
11011;BME280;5558;42.702;23.178;2023-06-10T10:36:12;93206.13;;;26.34;46.92
11011;BME280;5558;42.702;23.178;2023-06-10T10:38:40;93207.19;;;25.89;47.98
11011;BME280;5558;42.702;23.178;2023-06-10T10:41:10;93202.81;;;25.22;49.32
11011;BME280;5558;42.702;23.178;2023-06-10T10:43:37;93195.53;;;25.00;49.54
11011;BME280;5558;42.702;23.178;2023-06-10T10:46:12;93193.13;;;25.21;49.29
11011;BME280;5558;42.702;23.178;2023-06-10T10:48:39;93192.19;;;25.36;54.13
11011;BME280;5558;42.702;23.178;2023-06-10T10:51:07;93181.22;;;25.55;49.15
11011;BME280;5558;42.702;23.178;2023-06-10T10:53:33;93180.44;;;25.55;51.96
11011;BME280;5558;42.702;23.178;2023-06-10T10:56:05;93178.34;;;25.74;45.70
11011;BME280;5558;42.702;23.178;2023-06-10T10:58:34;93171.47;;;26.61;48.27
11011;BME280;5558;42.702;23.178;2023-06-10T11:01:10;93181.88;;;26.99;43.21
11011;BME280;5558;42.702;23.178;2023-06-10T11:03:43;93177.13;;;27.39;44.08
11011;BME280;5558;42.702;23.178;2023-06-10T11:06:13;93174.78;;;27.38;43.46
11011;BME280;5558;42.702;23.178;2023-06-10T11:08:46;93177.88;;;26.79;43.13
11011;BME280;5558;42.702;23.178;2023-06-10T11:11:19;93168.13;;;26.74;45.01
11011;BME280;5558;42.702;23.178;2023-06-10T11:14:06;93163.56;;;26.85;43.93
11011;BME280;5558;42.702;23.178;2023-06-10T11:16:39;93163.59;;;26.45;44.81
11011;BME280;5558;42.702;23.178;2023-06-10T11:19:06;93163.94;;;26.43;45.87
11011;BME280;5558;42.702;23.178;2023-06-10T11:21:43;93160.91;;;26.08;47.44
11011;BME280;5558;42.702;23.178;2023-06-10T11:24:12;93146.13;;;25.69;47.57
11011;BME280;5558;42.702;23.178;2023-06-10T11:26:44;93149.78;;;25.51;46.15
11011;BME280;5558;42.702;23.178;2023-06-10T11:29:14;93145.34;;;26.02;46.37
11011;BME280;5558;42.702;23.178;2023-06-10T11:31:43;93138.44;;;26.52;45.87
11011;BME280;5558;42.702;23.178;2023-06-10T11:34:10;93137.06;;;25.91;49.25
11011;BME280;5558;42.702;23.178;2023-06-10T11:36:39;93136.41;;;26.01;47.04
11011;BME280;5558;42.702;23.178;2023-06-10T11:39:08;93142.19;;;26.00;45.22
11011;BME280;5558;42.702;23.178;2023-06-10T11:41:37;93132.88;;;25.97;46.37
11011;BME280;5558;42.702;23.178;2023-06-10T11:44:08;93143.44;;;26.02;47.75
11011;BME280;5558;42.702;23.178;2023-06-10T11:46:36;93135.09;;;25.88;45.86
11011;BME280;5558;42.702;23.178;2023-06-10T11:49:04;93136.28;;;25.87;46.20
11011;BME280;5558;42.702;23.178;2023-06-10T11:51:33;93140.38;;;25.41;46.93
11011;BME280;5558;42.702;23.178;2023-06-10T11:54:00;93139.28;;;25.79;48.24
11011;BME280;5558;42.702;23.178;2023-06-10T11:56:28;93133.75;;;25.68;47.35
11011;BME280;5558;42.702;23.178;2023-06-10T11:58:56;93127.16;;;25.69;46.47
11011;BME280;5558;42.702;23.178;2023-06-10T12:01:24;93138.56;;;25.52;47.71
11011;BME280;5558;42.702;23.178;2023-06-10T12:04:03;93132.94;;;25.35;46.11
11011;BME280;5558;42.702;23.178;2023-06-10T12:06:48;93128.97;;;25.28;47.50
11011;BME280;5558;42.702;23.178;2023-06-10T12:09:19;93126.78;;;25.38;45.32
11011;BME280;5558;42.702;23.178;2023-06-10T12:11:49;93134.31;;;25.51;44.69
11011;BME280;5558;42.702;23.178;2023-06-10T12:14:16;93128.91;;;25.88;45.39
11011;BME280;5558;42.702;23.178;2023-06-10T12:16:48;93136.16;;;26.13;45.06
11011;BME280;5558;42.702;23.178;2023-06-10T12:19:16;93124.59;;;26.20;45.78
11011;BME280;5558;42.702;23.178;2023-06-10T12:21:44;93128.31;;;26.48;44.03
11011;BME280;5558;42.702;23.178;2023-06-10T12:24:11;93127.28;;;26.64;45.67
11011;BME280;5558;42.702;23.178;2023-06-10T12:26:40;93119.25;;;25.90;48.71
11011;BME280;5558;42.702;23.178;2023-06-10T12:29:16;93117.31;;;25.54;49.46
11011;BME280;5558;42.702;23.178;2023-06-10T12:31:58;93109.50;;;25.49;49.29
11011;BME280;5558;42.702;23.178;2023-06-10T12:34:35;93105.25;;;25.48;51.69
11011;BME280;5558;42.702;23.178;2023-06-10T12:37:03;93111.03;;;25.47;49.11
11011;BME280;5558;42.702;23.178;2023-06-10T12:39:31;93108.06;;;25.29;47.78
11011;BME280;5558;42.702;23.178;2023-06-10T12:41:58;93123.44;;;25.18;46.11
11011;BME280;5558;42.702;23.178;2023-06-10T12:44:35;93117.56;;;25.12;46.12
11011;BME280;5558;42.702;23.178;2023-06-10T12:47:07;93118.25;;;25.06;43.34
11011;BME280;5558;42.702;23.178;2023-06-10T12:49:36;93118.44;;;25.23;45.09
11011;BME280;5558;42.702;23.178;2023-06-10T12:52:04;93126.38;;;25.36;44.45
11011;BME280;5558;42.702;23.178;2023-06-10T12:54:31;93142.66;;;25.09;46.37
11011;BME280;5558;42.702;23.178;2023-06-10T12:56:58;93139.34;;;23.58;59.37
11011;BME280;5558;42.702;23.178;2023-06-10T12:59:26;93141.56;;;22.98;66.40